Time;durP1;ratioP1;P1;durP2;ratioP2;P2;SDS_P1;SDS_P2;PMS_P1;PMS_P2;Temp;Humidity;BMP_temperature;BMP_pressure;BME280_temperature;BME280_humidity;BME280_pressure;Samples;Min_cycle;Max_cycle;Signal;HPM_P1;HPM_P2
2022/04/03 00:00:38;;;;;;;3.05;2.25;;;;;;;;;;5108638;27;20042;-77
2022/04/03 00:03:04;;;;;;;2.85;2.17;;;;;;;;;;5106183;27;20027;-77
2022/04/03 00:05:33;;;;;;;5.47;2.15;;;;;;;;;;5106702;27;20077;-78
2022/04/03 00:07:59;;;;;;;3.15;1.52;;;;;;;;;;5103643;28;20047;-78
2022/04/03 00:10:25;;;;;;;3.28;1.80;;;;;;;;;;5086949;27;20042;-78
2022/04/03 00:12:51;;;;;;;3.35;2.30;;;;;;;;;;5101989;28;20043;-78
2022/04/03 00:15:17;;;;;;;3.55;2.45;;;;;;;;;;5105307;27;20126;-78
2022/04/03 00:17:43;;;;;;;2.33;1.80;;;;;;;;;;5105888;27;20536;-78
2022/04/03 00:20:10;;;;;;;3.35;1.98;;;;;;;;;;5084368;27;20039;-78
2022/04/03 00:22:36;;;;;;;5.25;2.17;;;;;;;;;;5103402;27;20118;-78
2022/04/03 00:25:02;;;;;;;3.63;2.17;;;;;;;;;;5103383;27;20534;-78
2022/04/03 00:27:28;;;;;;;4.57;2.70;;;;;;;;;;5081489;27;20395;-78
2022/04/03 00:29:54;;;;;;;5.05;2.63;;;;;;;;;;5106843;27;20035;-78
2022/04/03 00:32:20;;;;;;;4.60;2.33;;;;;;;;;;5091381;27;20486;-79
2022/04/03 00:34:47;;;;;;;5.63;2.53;;;;;;;;;;5084343;27;20074;-78
2022/04/03 00:37:13;;;;;;;3.50;2.28;;;;;;;;;;5110151;27;20041;-78
2022/04/03 00:39:39;;;;;;;5.88;2.42;;;;;;;;;;5108096;28;20054;-79
2022/04/03 00:42:08;;;;;;;4.50;2.03;;;;;;;;;;5085411;28;20048;-78
2022/04/03 00:44:38;;;;;;;3.83;2.30;;;;;;;;;;5108420;27;20042;-78
2022/04/03 00:47:04;;;;;;;6.22;2.35;;;;;;;;;;5087984;27;20114;-78
2022/04/03 00:49:31;;;;;;;2.97;2.33;;;;;;;;;;5102606;27;20069;-78
2022/04/03 00:51:58;;;;;;;3.72;2.28;;;;;;;;;;5081552;28;20429;-78
2022/04/03 00:54:24;;;;;;;3.35;2.10;;;;;;;;;;5091050;27;20039;-78
2022/04/03 00:56:50;;;;;;;4.13;2.20;;;;;;;;;;5086718;27;20035;-78
2022/04/03 00:59:16;;;;;;;2.75;2.28;;;;;;;;;;5103318;27;20042;-78
2022/04/03 01:01:42;;;;;;;7.10;2.47;;;;;;;;;;5087207;27;20716;-79
2022/04/03 01:04:08;;;;;;;6.07;2.20;;;;;;;;;;5102440;27;20109;-78
2022/04/03 01:06:35;;;;;;;7.88;2.42;;;;;;;;;;5102292;27;20352;-78
2022/04/03 01:09:02;;;;;;;4.32;2.40;;;;;;;;;;5101398;28;20035;-78
2022/04/03 01:11:28;;;;;;;6.35;2.75;;;;;;;;;;5103690;27;20042;-78
2022/04/03 01:13:54;;;;;;;2.63;1.92;;;;;;;;;;5086202;28;20039;-78
2022/04/03 01:16:20;;;;;;;2.75;2.17;;;;;;;;;;5101532;27;20048;-78
2022/04/03 01:18:46;;;;;;;2.22;2.00;;;;;;;;;;5103544;28;20039;-79
2022/04/03 01:21:12;;;;;;;3.70;2.10;;;;;;;;;;5102657;27;20474;-79
2022/04/03 01:23:38;;;;;;;4.22;2.40;;;;;;;;;;5102475;28;20324;-77
2022/04/03 01:26:05;;;;;;;4.57;2.30;;;;;;;;;;5082919;28;20475;-78
2022/04/03 01:28:31;;;;;;;7.07;2.65;;;;;;;;;;5077332;28;20055;-78
2022/04/03 01:30:57;;;;;;;7.88;2.45;;;;;;;;;;5094139;28;20054;-79
2022/04/03 01:33:23;;;;;;;2.75;2.40;;;;;;;;;;5077294;28;20054;-78
2022/04/03 01:35:49;;;;;;;4.10;2.35;;;;;;;;;;5077101;28;20122;-79
2022/04/03 01:38:16;;;;;;;4.88;2.33;;;;;;;;;;5076773;28;20051;-78
2022/04/03 01:40:42;;;;;;;4.55;2.65;;;;;;;;;;5093912;28;20052;-79
2022/04/03 01:43:09;;;;;;;6.60;2.80;;;;;;;;;;5076628;28;20083;-79
2022/04/03 01:45:35;;;;;;;4.80;2.50;;;;;;;;;;5093280;28;20039;-79
2022/04/03 01:48:02;;;;;;;7.10;2.60;;;;;;;;;;5093668;28;20039;-79
2022/04/03 01:50:28;;;;;;;7.68;2.40;;;;;;;;;;5076610;28;20040;-79
2022/04/03 01:52:54;;;;;;;4.50;2.45;;;;;;;;;;5076942;28;20495;-79
2022/04/03 01:55:20;;;;;;;5.50;2.80;;;;;;;;;;5093829;28;20479;-79
2022/04/03 01:57:46;;;;;;;3.30;2.40;;;;;;;;;;5077027;28;20039;-79
2022/04/03 02:00:12;;;;;;;3.42;2.20;;;;;;;;;;5091370;28;20092;-79
2022/04/03 02:02:38;;;;;;;8.32;2.78;;;;;;;;;;5076624;28;20027;-78
2022/04/03 02:05:05;;;;;;;4.95;2.60;;;;;;;;;;5079277;28;20039;-78
2022/04/03 02:07:33;;;;;;;3.70;2.15;;;;;;;;;;5096248;28;20046;-79
2022/04/03 02:09:59;;;;;;;4.30;2.67;;;;;;;;;;5096825;28;20047;-79
2022/04/03 02:12:25;;;;;;;5.25;2.38;;;;;;;;;;5080438;28;20130;-80
2022/04/03 02:14:51;;;;;;;2.80;2.10;;;;;;;;;;5080630;28;20164;-79
2022/04/03 02:17:17;;;;;;;2.85;1.92;;;;;;;;;;5080551;28;20046;-79
2022/04/03 02:19:43;;;;;;;2.97;2.30;;;;;;;;;;5097261;28;20050;-79
2022/04/03 02:22:09;;;;;;;9.23;2.72;;;;;;;;;;5097237;28;20122;-79
2022/04/03 02:24:35;;;;;;;4.93;2.45;;;;;;;;;;5080231;28;20032;-79
2022/04/03 02:27:01;;;;;;;8.10;2.38;;;;;;;;;;5080088;28;20039;-79
2022/04/03 02:29:27;;;;;;;6.43;2.35;;;;;;;;;;5079139;28;20484;-78
2022/04/03 02:31:53;;;;;;;3.03;2.13;;;;;;;;;;5080250;28;20039;-78
2022/04/03 02:34:19;;;;;;;7.30;2.20;;;;;;;;;;5096878;28;20122;-78
2022/04/03 02:36:45;;;;;;;4.03;2.10;;;;;;;;;;5080054;28;20047;-77
2022/04/03 02:39:14;;;;;;;3.65;2.28;;;;;;;;;;5096531;28;20495;-78
2022/04/03 02:41:40;;;;;;;3.38;2.08;;;;;;;;;;5096282;28;20052;-78
2022/04/03 02:44:06;;;;;;;4.85;2.22;;;;;;;;;;5079695;28;20071;-77
2022/04/03 02:46:33;;;;;;;6.40;2.90;;;;;;;;;;5096862;28;20090;-78
2022/04/03 02:48:59;;;;;;;8.43;2.88;;;;;;;;;;5096399;28;20122;-78
2022/04/03 02:51:25;;;;;;;4.15;2.65;;;;;;;;;;5079721;28;20451;-78
2022/04/03 02:53:50;;;;;;;5.82;2.58;;;;;;;;;;5096426;28;20050;-78
2022/04/03 02:56:16;;;;;;;4.50;2.80;;;;;;;;;;5079485;28;20047;-78
2022/04/03 02:58:42;;;;;;;3.50;2.53;;;;;;;;;;5079375;28;20051;-78
2022/04/03 03:01:08;;;;;;;3.20;2.53;;;;;;;;;;5096278;28;20045;-78
2022/04/03 03:03:35;;;;;;;4.60;2.90;;;;;;;;;;5079424;28;20035;-78
2022/04/03 03:06:01;;;;;;;2.85;2.08;;;;;;;;;;5079527;28;20040;-79
2022/04/03 03:08:27;;;;;;;4.70;2.38;;;;;;;;;;5079077;28;20444;-78
2022/04/03 03:10:53;;;;;;;5.38;2.58;;;;;;;;;;5096129;28;20066;-78
2022/04/03 03:13:19;;;;;;;5.90;3.25;;;;;;;;;;5096059;28;20080;-78
2022/04/03 03:15:45;;;;;;;3.65;2.33;;;;;;;;;;5094769;28;20496;-78
2022/04/03 03:18:11;;;;;;;4.40;2.58;;;;;;;;;;5078872;28;20509;-78
2022/04/03 03:20:37;;;;;;;5.22;3.28;;;;;;;;;;5079041;28;20036;-77
2022/04/03 03:23:03;;;;;;;6.20;2.90;;;;;;;;;;5095955;28;20038;-78
2022/04/03 03:25:29;;;;;;;3.60;2.30;;;;;;;;;;5078870;28;20802;-77
2022/04/03 03:27:55;;;;;;;3.67;3.03;;;;;;;;;;5079372;28;20092;-78
2022/04/03 03:30:21;;;;;;;4.80;2.60;;;;;;;;;;5078757;28;20444;-77
2022/04/03 03:32:47;;;;;;;3.55;2.60;;;;;;;;;;5079110;28;20036;-77
2022/04/03 03:35:14;;;;;;;3.83;2.30;;;;;;;;;;5095518;28;20407;-76
2022/04/03 03:37:40;;;;;;;5.45;2.58;;;;;;;;;;5095557;28;20088;-78
2022/04/03 03:40:11;;;;;;;3.25;2.05;;;;;;;;;;5095354;28;20047;-78
2022/04/03 03:42:37;;;;;;;4.68;2.30;;;;;;;;;;5077056;28;20458;-77
2022/04/03 03:45:03;;;;;;;4.40;2.17;;;;;;;;;;5072130;28;20039;-77
2022/04/03 03:47:29;;;;;;;4.25;2.72;;;;;;;;;;5071861;28;20044;-78
2022/04/03 03:49:55;;;;;;;3.92;2.45;;;;;;;;;;5072046;28;20529;-78
2022/04/03 03:52:21;;;;;;;6.18;3.25;;;;;;;;;;5071767;28;20040;-78
2022/04/03 03:54:48;;;;;;;5.18;2.97;;;;;;;;;;5071900;28;20109;-78
2022/04/03 03:57:14;;;;;;;3.00;2.65;;;;;;;;;;5072003;28;20063;-78
2022/04/03 03:59:40;;;;;;;4.70;3.15;;;;;;;;;;5054682;28;20480;-78
2022/04/03 04:02:06;;;;;;;6.47;2.78;;;;;;;;;;5054770;28;20051;-77
2022/04/03 04:04:32;;;;;;;3.40;3.00;;;;;;;;;;5054995;28;20137;-78
2022/04/03 04:06:58;;;;;;;2.80;2.33;;;;;;;;;;5071381;28;20178;-78
2022/04/03 04:09:24;;;;;;;3.63;2.72;;;;;;;;;;5071298;28;20131;-78
2022/04/03 04:11:50;;;;;;;3.10;2.00;;;;;;;;;;5054622;28;20048;-78
2022/04/03 04:14:16;;;;;;;3.03;2.63;;;;;;;;;;5071126;28;20040;-78
2022/04/03 04:16:42;;;;;;;4.47;2.58;;;;;;;;;;5071232;28;20040;-78
2022/04/03 04:19:09;;;;;;;5.07;2.40;;;;;;;;;;5054401;28;20076;-78
2022/04/03 04:21:35;;;;;;;4.85;2.97;;;;;;;;;;5071339;28;20049;-78
2022/04/03 04:24:01;;;;;;;4.18;3.03;;;;;;;;;;5071432;28;20499;-78
2022/04/03 04:26:27;;;;;;;5.57;2.80;;;;;;;;;;5070892;28;20082;-78
2022/04/03 04:28:53;;;;;;;5.00;2.88;;;;;;;;;;5054326;28;20044;-78
2022/04/03 04:31:19;;;;;;;5.00;2.88;;;;;;;;;;5054325;28;20477;-78
2022/04/03 04:33:45;;;;;;;4.32;2.55;;;;;;;;;;5054499;28;20052;-78
2022/04/03 04:36:11;;;;;;;5.63;2.85;;;;;;;;;;5070870;28;20041;-78
2022/04/03 04:38:37;;;;;;;3.15;2.42;;;;;;;;;;5070752;28;20040;-78
2022/04/03 04:41:04;;;;;;;4.20;2.45;;;;;;;;;;5057581;28;20086;-78
2022/04/03 04:43:30;;;;;;;2.58;2.17;;;;;;;;;;5077566;28;20094;-78
2022/04/03 04:45:56;;;;;;;2.35;2.05;;;;;;;;;;5094298;28;20051;-77
2022/04/03 04:48:22;;;;;;;5.68;2.58;;;;;;;;;;5094568;28;20263;-77
2022/04/03 04:50:49;;;;;;;5.22;2.78;;;;;;;;;;5077625;28;20071;-78
2022/04/03 04:53:15;;;;;;;4.65;3.10;;;;;;;;;;5094263;28;20035;-77
2022/04/03 04:55:41;;;;;;;5.18;2.90;;;;;;;;;;5077343;28;20077;-77
2022/04/03 04:58:07;;;;;;;6.35;2.70;;;;;;;;;;5094059;28;20035;-78
2022/04/03 05:00:33;;;;;;;4.15;3.10;;;;;;;;;;5077143;28;20471;-78
2022/04/03 05:02:59;;;;;;;6.45;3.17;;;;;;;;;;5093894;28;20039;-78
2022/04/03 05:05:27;;;;;;;4.10;3.00;;;;;;;;;;5094172;28;20089;-77
2022/04/03 05:07:57;;;;;;;5.18;3.10;;;;;;;;;;5076949;28;20399;-77
2022/04/03 05:10:24;;;;;;;4.93;2.88;;;;;;;;;;5077545;28;20097;-78
2022/04/03 05:12:50;;;;;;;4.68;3.22;;;;;;;;;;5093837;28;20036;-78
2022/04/03 05:15:18;;;;;;;3.67;2.75;;;;;;;;;;5094136;28;20457;-78
2022/04/03 05:17:45;;;;;;;4.72;3.00;;;;;;;;;;5077121;28;20047;-78
2022/04/03 05:20:12;;;;;;;5.65;3.95;;;;;;;;;;5076862;28;20052;-77
2022/04/03 05:22:38;;;;;;;6.85;3.88;;;;;;;;;;5093738;28;20039;-77
2022/04/03 05:25:05;;;;;;;5.53;3.85;;;;;;;;;;5093719;28;20073;-78
2022/04/03 05:27:31;;;;;;;4.53;3.10;;;;;;;;;;5093657;28;20043;-78
2022/04/03 05:29:57;;;;;;;4.13;3.22;;;;;;;;;;5077062;28;20040;-78
2022/04/03 05:32:30;;;;;;;3.03;2.70;;;;;;;;;;5077105;28;20035;-78
2022/04/03 05:34:57;;;;;;;4.05;2.80;;;;;;;;;;5093692;28;20039;-78
2022/04/03 05:37:23;;;;;;;5.05;3.33;;;;;;;;;;5076745;28;20509;-77
2022/04/03 05:39:51;;;;;;;4.93;3.13;;;;;;;;;;5080083;28;20040;-78
2022/04/03 05:42:16;;;;;;;5.05;3.40;;;;;;;;;;5097306;28;20052;-78
2022/04/03 05:44:42;;;;;;;6.28;3.03;;;;;;;;;;5081131;28;20093;-78
2022/04/03 05:47:08;;;;;;;4.40;3.05;;;;;;;;;;5097485;28;20114;-78
2022/04/03 05:49:34;;;;;;;3.75;2.83;;;;;;;;;;5097875;28;20040;-77
2022/04/03 05:52:00;;;;;;;4.15;3.05;;;;;;;;;;5080653;28;20053;-77
2022/04/03 05:54:26;;;;;;;5.18;3.03;;;;;;;;;;5097672;28;20483;-77
2022/04/03 05:56:52;;;;;;;5.75;3.30;;;;;;;;;;5097852;28;20071;-77
2022/04/03 05:59:19;;;;;;;5.05;3.50;;;;;;;;;;5080538;28;20046;-77
2022/04/03 06:01:46;;;;;;;5.95;3.60;;;;;;;;;;5080419;28;20039;-75
2022/04/03 06:04:12;;;;;;;4.97;3.67;;;;;;;;;;5097450;28;20043;-77
2022/04/03 06:06:38;;;;;;;4.93;2.70;;;;;;;;;;5097245;28;20059;-76
2022/04/03 06:09:04;;;;;;;5.55;3.50;;;;;;;;;;5080789;28;20325;-76
2022/04/03 06:11:30;;;;;;;5.38;3.65;;;;;;;;;;5080502;28;20050;-77
2022/04/03 06:13:56;;;;;;;7.53;4.60;;;;;;;;;;5080481;28;20088;-77
2022/04/03 06:16:22;;;;;;;6.00;3.53;;;;;;;;;;5080399;28;20040;-76
2022/04/03 06:18:48;;;;;;;6.18;3.78;;;;;;;;;;5096907;28;20040;-77
2022/04/03 06:21:14;;;;;;;3.78;2.83;;;;;;;;;;5096943;28;20054;-78
2022/04/03 06:23:41;;;;;;;7.20;2.65;;;;;;;;;;5097191;28;20036;-78
2022/04/03 06:26:06;;;;;;;4.53;2.53;;;;;;;;;;5080399;28;20035;-77
2022/04/03 06:28:33;;;;;;;4.13;2.45;;;;;;;;;;5097195;28;20118;-77
2022/04/03 06:30:59;;;;;;;4.82;2.50;;;;;;;;;;5096699;28;20031;-76
2022/04/03 06:33:25;;;;;;;4.25;2.70;;;;;;;;;;5097042;28;20049;-78
2022/04/03 06:35:51;;;;;;;7.95;3.38;;;;;;;;;;5080040;28;20094;-78
2022/04/03 06:38:17;;;;;;;8.25;3.47;;;;;;;;;;5096848;28;20071;-78
2022/04/03 06:40:51;;;;;;;4.28;3.63;;;;;;;;;;5096303;28;20044;-77
2022/04/03 06:43:19;;;;;;;3.92;2.72;;;;;;;;;;5079681;28;20127;-78
2022/04/03 06:45:45;;;;;;;6.47;2.85;;;;;;;;;;5079813;28;20077;-77
2022/04/03 06:48:11;;;;;;;5.63;2.78;;;;;;;;;;5096460;28;20039;-77
2022/04/03 06:50:37;;;;;;;3.72;2.60;;;;;;;;;;5096708;28;20544;-76
2022/04/03 06:53:04;;;;;;;4.28;2.85;;;;;;;;;;5079813;28;20044;-77
2022/04/03 06:55:30;;;;;;;3.05;2.55;;;;;;;;;;5096356;28;20135;-75
2022/04/03 06:57:56;;;;;;;2.90;2.53;;;;;;;;;;5079486;28;20122;-76
2022/04/03 07:00:22;;;;;;;4.53;2.63;;;;;;;;;;5079257;28;20093;-76
2022/04/03 07:02:49;;;;;;;3.58;2.58;;;;;;;;;;5096621;28;20036;-76
2022/04/03 07:05:15;;;;;;;2.40;2.03;;;;;;;;;;5079395;28;20471;-76
2022/04/03 07:07:41;;;;;;;3.47;2.45;;;;;;;;;;5079780;28;20080;-76
2022/04/03 07:10:08;;;;;;;5.57;1.88;;;;;;;;;;5097089;28;20483;-76
2022/04/03 07:12:34;;;;;;;3.60;2.05;;;;;;;;;;5079559;28;20043;-76
2022/04/03 07:15:00;;;;;;;2.85;1.60;;;;;;;;;;5079105;28;20047;-76
2022/04/03 07:17:26;;;;;;;3.40;2.03;;;;;;;;;;5079297;28;20067;-75
2022/04/03 07:19:52;;;;;;;2.90;1.73;;;;;;;;;;5078842;28;20040;-77
2022/04/03 07:22:18;;;;;;;3.45;1.60;;;;;;;;;;5095809;28;20039;-76
2022/04/03 07:24:44;;;;;;;1.98;1.23;;;;;;;;;;5079182;28;20035;-76
2022/04/03 07:27:10;;;;;;;2.50;1.13;;;;;;;;;;5078759;28;20035;-74
2022/04/03 07:29:36;;;;;;;3.30;1.40;;;;;;;;;;5079215;28;20040;-74
2022/04/03 07:32:03;;;;;;;2.53;1.42;;;;;;;;;;5078789;28;20078;-75
2022/04/03 07:34:29;;;;;;;2.17;1.20;;;;;;;;;;5079049;28;20077;-72
2022/04/03 07:36:56;;;;;;;1.90;1.30;;;;;;;;;;5078674;28;20039;-75
2022/04/03 07:39:22;;;;;;;1.60;1.50;;;;;;;;;;5095439;28;20097;-74
2022/04/03 07:41:48;;;;;;;1.08;0.95;;;;;;;;;;5067021;28;20611;-73
2022/04/03 07:44:15;;;;;;;1.75;1.00;;;;;;;;;;5071830;28;20098;-71
2022/04/03 07:46:41;;;;;;;6.82;1.85;;;;;;;;;;5055160;28;20045;-72
2022/04/03 07:49:07;;;;;;;1.92;1.15;;;;;;;;;;5055168;28;20052;-73
2022/04/03 07:51:34;;;;;;;1.38;1.15;;;;;;;;;;5071697;28;20044;-74
2022/04/03 07:54:00;;;;;;;2.30;1.17;;;;;;;;;;5055326;28;20059;-76
2022/04/03 07:56:26;;;;;;;2.75;1.15;;;;;;;;;;5071855;28;20411;-75
2022/04/03 07:58:52;;;;;;;3.38;1.00;;;;;;;;;;5071499;28;20076;-73
2022/04/03 08:01:17;;;;;;;2.65;1.02;;;;;;;;;;5054690;28;20508;-71
2022/04/03 08:03:43;;;;;;;1.33;1.10;;;;;;;;;;5055155;28;20037;-73
2022/04/03 08:06:09;;;;;;;1.08;1.00;;;;;;;;;;5071507;28;20052;-74
2022/04/03 08:08:35;;;;;;;3.20;1.20;;;;;;;;;;5054783;28;20072;-72
2022/04/03 08:11:02;;;;;;;0.93;0.90;;;;;;;;;;5071229;28;20480;-70
2022/04/03 08:13:28;;;;;;;1.05;0.98;;;;;;;;;;5054666;28;20044;-74
2022/04/03 08:15:54;;;;;;;1.30;1.10;;;;;;;;;;5054970;28;20524;-73
2022/04/03 08:18:22;;;;;;;3.05;1.40;;;;;;;;;;5054729;28;20041;-76
2022/04/03 08:20:48;;;;;;;2.33;1.15;;;;;;;;;;5054494;28;20072;-72
2022/04/03 08:23:14;;;;;;;1.88;1.00;;;;;;;;;;5071421;28;20086;-71
2022/04/03 08:25:40;;;;;;;1.73;1.20;;;;;;;;;;5054421;28;20044;-72
2022/04/03 08:28:07;;;;;;;3.65;1.20;;;;;;;;;;5071034;28;20127;-76
2022/04/03 08:30:37;;;;;;;0.95;0.88;;;;;;;;;;5054477;28;20114;-73
2022/04/03 08:33:04;;;;;;;0.95;0.80;;;;;;;;;;5071010;28;20045;-72
2022/04/03 08:35:31;;;;;;;2.42;0.95;;;;;;;;;;5070970;28;20517;-71
2022/04/03 08:37:58;;;;;;;5.55;1.20;;;;;;;;;;5055564;28;20083;-69
2022/04/03 08:40:25;;;;;;;0.80;0.63;;;;;;;;;;5070846;28;20557;-74
2022/04/03 08:42:52;;;;;;;1.85;0.95;;;;;;;;;;5070712;28;20492;-75
2022/04/03 08:45:19;;;;;;;2.67;0.90;;;;;;;;;;5070836;28;20633;-72
2022/04/03 08:47:47;;;;;;;0.80;0.75;;;;;;;;;;5054104;28;20036;-72
2022/04/03 08:50:14;;;;;;;1.65;0.70;;;;;;;;;;5053018;28;20048;-73
2022/04/03 08:52:48;;;;;;;1.52;1.10;;;;;;;;;;5070352;28;20124;-77
2022/04/03 08:55:14;;;;;;;1.27;0.60;;;;;;;;;;5053937;28;20110;-73
2022/04/03 08:57:40;;;;;;;1.50;0.60;;;;;;;;;;5054131;28;20050;-80
2022/04/03 09:00:07;;;;;;;0.55;0.40;;;;;;;;;;5070515;28;20064;-77
2022/04/03 09:02:33;;;;;;;2.40;0.70;;;;;;;;;;5054033;28;20045;-72
2022/04/03 09:05:00;;;;;;;2.40;0.70;;;;;;;;;;5053822;28;20037;-76
2022/04/03 09:07:26;;;;;;;1.30;0.73;;;;;;;;;;5053752;28;20048;-73
2022/04/03 09:10:00;;;;;;;1.30;0.80;;;;;;;;;;5053818;28;20032;-78
2022/04/03 09:12:29;;;;;;;2.40;0.70;;;;;;;;;;5053548;28;20040;-78
2022/04/03 09:14:55;;;;;;;0.77;0.60;;;;;;;;;;5069943;28;20232;-73
2022/04/03 09:17:38;;;;;;;0.80;0.57;;;;;;;;;;5053439;28;20048;-74
2022/04/03 09:20:06;;;;;;;0.77;0.60;;;;;;;;;;5070185;28;20048;-70
2022/04/03 09:22:33;;;;;;;2.30;0.63;;;;;;;;;;5053620;28;20036;-70
2022/04/03 09:24:59;;;;;;;0.63;0.63;;;;;;;;;;5070538;28;20044;-71
2022/04/03 09:27:25;;;;;;;1.63;0.68;;;;;;;;;;5053685;28;20339;-74
2022/04/03 09:30:01;;;;;;;0.82;0.70;;;;;;;;;;5070469;28;20046;-73
2022/04/03 09:32:27;;;;;;;2.05;0.60;;;;;;;;;;5070223;28;20446;-71
2022/04/03 09:34:56;;;;;;;3.80;1.10;;;;;;;;;;5070157;28;20063;-70
2022/04/03 09:37:22;;;;;;;0.95;0.60;;;;;;;;;;5070375;28;20118;-76
2022/04/03 09:39:48;;;;;;;2.95;0.90;;;;;;;;;;5047896;28;20489;-73
2022/04/03 09:42:15;;;;;;;3.50;0.85;;;;;;;;;;5054596;28;20049;-78
2022/04/03 09:44:45;;;;;;;2.53;0.70;;;;;;;;;;5081178;28;20048;-75
2022/04/03 09:47:12;;;;;;;1.05;0.70;;;;;;;;;;5056414;28;20511;-77
2022/04/03 09:49:39;;;;;;;1.50;0.85;;;;;;;;;;5070770;28;20055;-72
2022/04/03 09:52:05;;;;;;;2.13;0.85;;;;;;;;;;5078616;28;20450;-73
2022/04/03 09:54:31;;;;;;;2.45;0.60;;;;;;;;;;5049766;28;20044;-75
2022/04/03 09:57:18;;;;;;;0.70;0.60;;;;;;;;;;5071229;28;20444;-76
2022/04/03 09:59:48;;;;;;;1.80;0.60;;;;;;;;;;5049800;28;20045;-76
2022/04/03 10:02:14;;;;;;;1.38;0.70;;;;;;;;;;5049912;28;20072;-74
2022/04/03 10:04:40;;;;;;;0.75;0.60;;;;;;;;;;5074346;28;20079;-73
2022/04/03 10:07:07;;;;;;;1.42;0.52;;;;;;;;;;5069028;28;20567;-71
2022/04/03 10:09:34;;;;;;;2.10;0.50;;;;;;;;;;5077087;28;20438;-74
2022/04/03 10:12:00;;;;;;;1.63;0.40;;;;;;;;;;5049832;28;20135;-74
2022/04/03 10:14:26;;;;;;;1.70;0.50;;;;;;;;;;5062994;28;20127;-79
2022/04/03 10:16:52;;;;;;;0.45;0.40;;;;;;;;;;5056030;28;20519;-77
2022/04/03 10:19:18;;;;;;;2.85;0.52;;;;;;;;;;5069609;28;20048;-75
2022/04/03 10:21:49;;;;;;;1.00;0.52;;;;;;;;;;5056564;28;20040;-78
2022/04/03 10:24:16;;;;;;;1.02;0.40;;;;;;;;;;5066983;28;20048;-73
2022/04/03 10:26:43;;;;;;;0.32;0.30;;;;;;;;;;5062037;28;20032;-76
2022/04/03 10:29:10;;;;;;;0.85;0.60;;;;;;;;;;5069045;28;20048;-75
2022/04/03 10:31:37;;;;;;;1.10;0.35;;;;;;;;;;5090038;28;20039;-77
2022/04/03 10:34:03;;;;;;;4.00;0.57;;;;;;;;;;5076098;28;20087;-75
2022/04/03 10:36:30;;;;;;;1.67;0.40;;;;;;;;;;5076838;28;20043;-71
2022/04/03 10:39:02;;;;;;;0.60;0.43;;;;;;;;;;5076373;28;20043;-73
2022/04/03 10:41:30;;;;;;;0.98;0.40;;;;;;;;;;5070963;28;20408;-76
2022/04/03 10:44:15;;;;;;;1.23;0.60;;;;;;;;;;5056676;28;20041;-77
2022/04/03 10:47:00;;;;;;;0.47;0.38;;;;;;;;;;5056510;28;20040;-75
2022/04/03 10:49:38;;;;;;;1.42;0.40;;;;;;;;;;5053139;28;20485;-70
2022/04/03 10:52:08;;;;;;;0.40;0.40;;;;;;;;;;5053119;28;20083;-73
2022/04/03 10:54:41;;;;;;;2.50;1.27;;;;;;;;;;5044221;28;20036;-71
2022/04/03 10:57:37;;;;;;;0.80;0.50;;;;;;;;;;5052887;28;20555;-73
2022/04/03 11:00:15;;;;;;;1.75;0.43;;;;;;;;;;5059595;28;20132;-74
2022/04/03 11:02:42;;;;;;;2.90;0.50;;;;;;;;;;5045414;28;20029;-70
2022/04/03 11:05:29;;;;;;;1.02;0.60;;;;;;;;;;5036034;28;20127;-72
2022/04/03 11:08:04;;;;;;;3.28;0.77;;;;;;;;;;5036304;28;20106;-75
2022/04/03 11:10:49;;;;;;;1.50;1.30;;;;;;;;;;5036131;28;20097;-70
2022/04/03 11:13:18;;;;;;;2.88;0.80;;;;;;;;;;5050956;28;20477;-69
2022/04/03 11:15:50;;;;;;;1.70;0.52;;;;;;;;;;5057467;28;20115;-72
2022/04/03 11:18:35;;;;;;;2.88;0.90;;;;;;;;;;5039948;28;20634;-70
2022/04/03 11:21:09;;;;;;;1.88;0.45;;;;;;;;;;5053317;28;20182;-69
2022/04/03 11:23:36;;;;;;;1.42;0.50;;;;;;;;;;5069693;28;20040;-70
2022/04/03 11:26:02;;;;;;;1.92;0.95;;;;;;;;;;5052845;28;20040;-72
2022/04/03 11:28:29;;;;;;;1.35;0.70;;;;;;;;;;5050803;28;20045;-76
2022/04/03 11:30:55;;;;;;;1.10;0.77;;;;;;;;;;5054334;28;20041;-77
2022/04/03 11:33:22;;;;;;;0.75;0.60;;;;;;;;;;5062726;28;20370;-72
2022/04/03 11:35:48;;;;;;;2.55;1.00;;;;;;;;;;5049293;28;20048;-72
2022/04/03 11:38:15;;;;;;;0.82;0.60;;;;;;;;;;5044486;28;20044;-74
2022/04/03 11:40:42;;;;;;;2.30;0.65;;;;;;;;;;5058757;28;20500;-72
2022/04/03 11:43:13;;;;;;;3.08;0.90;;;;;;;;;;5051644;28;20053;-72
2022/04/03 11:45:39;;;;;;;0.90;0.63;;;;;;;;;;5034858;28;20576;-74
2022/04/03 11:48:18;;;;;;;2.08;0.85;;;;;;;;;;5058981;28;20079;-71
2022/04/03 11:50:44;;;;;;;4.18;0.90;;;;;;;;;;5048035;28;20091;-70
2022/04/03 11:53:11;;;;;;;3.92;1.02;;;;;;;;;;5055882;28;20501;-71
2022/04/03 11:55:38;;;;;;;1.52;0.80;;;;;;;;;;5044062;28;20457;-71
2022/04/03 11:58:04;;;;;;;2.08;0.70;;;;;;;;;;5045456;28;20052;-76
2022/04/03 12:00:34;;;;;;;0.75;0.70;;;;;;;;;;5044699;28;20527;-70
2022/04/03 12:03:00;;;;;;;1.60;0.80;;;;;;;;;;5051679;28;20496;-70
2022/04/03 12:05:26;;;;;;;4.53;1.25;;;;;;;;;;5068637;28;20044;-70
2022/04/03 12:07:52;;;;;;;0.95;0.70;;;;;;;;;;5051681;28;20079;-75
2022/04/03 12:10:28;;;;;;;2.08;1.00;;;;;;;;;;5041243;28;20121;-69
2022/04/03 12:12:58;;;;;;;5.35;0.77;;;;;;;;;;5047296;28;20037;-72
2022/04/03 12:15:25;;;;;;;2.22;1.10;;;;;;;;;;5050603;28;20048;-73
2022/04/03 12:17:58;;;;;;;0.82;0.77;;;;;;;;;;5053925;28;20055;-70
2022/04/03 12:20:24;;;;;;;5.63;1.20;;;;;;;;;;5058689;28;20523;-72
2022/04/03 12:22:50;;;;;;;3.38;0.85;;;;;;;;;;5062661;28;20124;-71
2022/04/03 12:25:17;;;;;;;1.98;0.80;;;;;;;;;;5067784;28;20032;-74
2022/04/03 12:27:43;;;;;;;0.95;0.82;;;;;;;;;;5054450;28;20048;-71
2022/04/03 12:30:09;;;;;;;0.70;0.70;;;;;;;;;;5063750;28;20123;-69
2022/04/03 12:32:36;;;;;;;1.20;0.52;;;;;;;;;;5053254;28;20040;-71
2022/04/03 12:35:05;;;;;;;2.38;0.80;;;;;;;;;;5039065;28;20037;-70
2022/04/03 12:37:34;;;;;;;2.45;0.95;;;;;;;;;;5050256;28;20071;-69
2022/04/03 12:40:00;;;;;;;1.05;0.60;;;;;;;;;;5053852;28;20041;-68
2022/04/03 12:42:31;;;;;;;0.70;0.65;;;;;;;;;;5077218;28;20104;-68
2022/04/03 12:44:57;;;;;;;1.15;0.70;;;;;;;;;;5084979;28;20040;-72
2022/04/03 12:47:29;;;;;;;0.50;0.50;;;;;;;;;;5059315;28;20032;-68
2022/04/03 12:50:07;;;;;;;0.40;0.40;;;;;;;;;;5074225;28;20093;-72
2022/04/03 12:52:49;;;;;;;0.40;0.40;;;;;;;;;;5083085;28;20043;-70
2022/04/03 12:55:24;;;;;;;0.95;0.60;;;;;;;;;;5057160;28;20044;-70
2022/04/03 13:00:56;;;;;;;0.73;0.30;;;;;;;;;;5082155;28;20105;-70
2022/04/03 13:03:23;;;;;;;0.63;0.50;;;;;;;;;;5073967;28;20040;-73
2022/04/03 13:05:49;;;;;;;1.73;0.40;;;;;;;;;;5057318;28;20040;-73
2022/04/03 13:08:15;;;;;;;0.45;0.45;;;;;;;;;;5080504;28;20036;-74
2022/04/03 13:10:51;;;;;;;0.45;0.30;;;;;;;;;;5088762;28;20499;-72
2022/04/03 13:13:21;;;;;;;0.75;0.40;;;;;;;;;;5056777;28;20100;-73
2022/04/03 13:15:47;;;;;;;0.40;0.40;;;;;;;;;;5056604;28;20047;-69
2022/04/03 13:18:13;;;;;;;1.50;0.88;;;;;;;;;;5092552;28;20050;-69
2022/04/03 13:20:39;;;;;;;2.53;0.50;;;;;;;;;;5056560;28;20040;-71
2022/04/03 13:23:05;;;;;;;2.28;0.60;;;;;;;;;;5062316;28;20040;-71
2022/04/03 13:25:31;;;;;;;0.47;0.47;;;;;;;;;;5077299;28;20475;-70
2022/04/03 13:27:57;;;;;;;0.40;0.40;;;;;;;;;;5086684;28;20126;-70
2022/04/03 13:30:23;;;;;;;2.10;0.70;;;;;;;;;;5056717;28;20071;-70
2022/04/03 13:32:49;;;;;;;1.95;0.60;;;;;;;;;;5089190;28;20047;-71
2022/04/03 13:35:15;;;;;;;3.97;1.30;;;;;;;;;;5068314;28;20503;-69
2022/04/03 13:37:41;;;;;;;2.13;0.70;;;;;;;;;;5061648;28;20492;-69
2022/04/03 13:40:07;;;;;;;0.98;0.73;;;;;;;;;;5082786;28;20047;-69
2022/04/03 13:42:33;;;;;;;1.90;0.82;;;;;;;;;;5072624;28;20403;-71
2022/04/03 13:44:59;;;;;;;3.28;0.70;;;;;;;;;;5075661;28;20032;-71
2022/04/03 13:47:26;;;;;;;3.63;0.73;;;;;;;;;;5063154;28;20493;-73
2022/04/03 13:49:52;;;;;;;1.50;0.70;;;;;;;;;;5063406;28;20040;-71
2022/04/03 13:52:18;;;;;;;0.88;0.80;;;;;;;;;;5056240;28;20083;-70
2022/04/03 13:54:44;;;;;;;1.70;0.93;;;;;;;;;;5056239;28;20047;-74
2022/04/03 13:57:10;;;;;;;3.70;0.95;;;;;;;;;;5065537;28;20394;-69
2022/04/03 13:59:36;;;;;;;0.88;0.77;;;;;;;;;;5093983;28;20047;-71
2022/04/03 14:02:03;;;;;;;2.00;0.80;;;;;;;;;;5080466;28;20476;-69
2022/04/03 14:04:29;;;;;;;2.55;0.70;;;;;;;;;;5080431;28;20043;-70
2022/04/03 14:06:55;;;;;;;2.13;0.70;;;;;;;;;;5071602;28;20081;-71
2022/04/03 14:09:21;;;;;;;3.45;0.93;;;;;;;;;;5078628;28;20454;-68
2022/04/03 14:11:48;;;;;;;1.58;0.80;;;;;;;;;;5060392;28;20441;-72
2022/04/03 14:14:14;;;;;;;1.60;0.80;;;;;;;;;;5077097;28;20044;-71
2022/04/03 14:16:40;;;;;;;1.80;0.88;;;;;;;;;;5076498;28;20526;-68
2022/04/03 14:19:06;;;;;;;2.17;0.85;;;;;;;;;;5080204;28;20492;-71
2022/04/03 14:21:32;;;;;;;1.67;0.80;;;;;;;;;;5089105;28;20077;-72
2022/04/03 14:23:59;;;;;;;3.33;1.08;;;;;;;;;;5089667;28;20036;-73
2022/04/03 14:26:25;;;;;;;2.08;0.82;;;;;;;;;;5084757;28;20085;-73
2022/04/03 14:28:51;;;;;;;1.98;0.90;;;;;;;;;;5071656;28;20119;-73
2022/04/03 14:31:17;;;;;;;1.10;1.00;;;;;;;;;;5079893;28;20040;-69
2022/04/03 14:33:43;;;;;;;1.10;0.50;;;;;;;;;;5076141;28;20036;-71
2022/04/03 14:36:09;;;;;;;1.77;1.00;;;;;;;;;;5090162;28;20072;-71
2022/04/03 14:38:36;;;;;;;2.05;0.88;;;;;;;;;;5087371;28;20063;-72
2022/04/03 14:41:02;;;;;;;0.70;0.70;;;;;;;;;;5059902;28;20036;-74
2022/04/03 14:43:28;;;;;;;2.03;0.88;;;;;;;;;;5059770;28;20036;-70
2022/04/03 14:45:54;;;;;;;1.05;0.75;;;;;;;;;;5082996;28;20044;-69